Time;durP1;ratioP1;P1;durP2;ratioP2;P2;SDS_P1;SDS_P2;PMS_P1;PMS_P2;Temp;Humidity;BMP_temperature;BMP_pressure;BME280_temperature;BME280_humidity;BME280_pressure;Samples;Min_cycle;Max_cycle;Signal;HPM_P1;HPM_P2
2022/01/05 00:01:08;;;;;;;0.40;0.40;;;;;;;;;;5073898;28;20414;-63
2022/01/05 00:03:34;;;;;;;0.43;0.43;;;;;;;;;;5073838;28;20381;-64
2022/01/05 00:06:00;;;;;;;0.40;0.40;;;;;;;;;;5072288;28;20829;-62
2022/01/05 00:08:26;;;;;;;0.50;0.50;;;;;;;;;;5073705;28;20502;-63
2022/01/05 00:10:53;;;;;;;0.40;0.40;;;;;;;;;;5073601;28;20393;-63
2022/01/05 00:13:19;;;;;;;0.97;0.50;;;;;;;;;;5072378;28;20769;-64
2022/01/05 00:15:46;;;;;;;0.40;0.40;;;;;;;;;;5073252;28;20473;-64
2022/01/05 00:18:12;;;;;;;0.40;0.40;;;;;;;;;;5073307;28;20477;-64
2022/01/05 00:20:38;;;;;;;0.50;0.50;;;;;;;;;;5073475;28;20407;-62
2022/01/05 00:23:05;;;;;;;0.30;0.30;;;;;;;;;;5073675;28;20441;-63
2022/01/05 00:25:31;;;;;;;0.30;0.30;;;;;;;;;;5073059;28;20406;-64
2022/01/05 00:27:57;;;;;;;0.40;0.40;;;;;;;;;;5073415;28;20421;-63
2022/01/05 00:30:23;;;;;;;0.60;0.60;;;;;;;;;;5073358;28;20377;-65
2022/01/05 00:32:49;;;;;;;0.40;0.40;;;;;;;;;;5073421;28;20422;-69
2022/01/05 00:35:15;;;;;;;0.40;0.40;;;;;;;;;;5073494;28;20408;-69
2022/01/05 00:37:41;;;;;;;0.60;0.40;;;;;;;;;;5073402;28;20418;-66
2022/01/05 00:40:07;;;;;;;1.27;0.40;;;;;;;;;;5073404;28;20505;-65
2022/01/05 00:42:36;;;;;;;0.63;0.40;;;;;;;;;;5073373;28;20428;-66
2022/01/05 00:45:03;;;;;;;1.43;0.40;;;;;;;;;;5073454;28;20410;-65
2022/01/05 00:47:29;;;;;;;0.50;0.50;;;;;;;;;;5073357;28;20424;-65
2022/01/05 00:49:55;;;;;;;0.40;0.40;;;;;;;;;;5073299;28;20406;-65
2022/01/05 00:52:21;;;;;;;0.40;0.40;;;;;;;;;;5073296;28;20813;-66
2022/01/05 00:54:47;;;;;;;0.40;0.40;;;;;;;;;;5073243;28;20434;-66
2022/01/05 00:57:13;;;;;;;0.40;0.40;;;;;;;;;;5073255;28;20446;-67
2022/01/05 00:59:45;;;;;;;0.80;0.53;;;;;;;;;;5073173;28;20469;-66
2022/01/05 01:02:11;;;;;;;0.30;0.30;;;;;;;;;;5073848;28;20870;-66
2022/01/05 01:04:37;;;;;;;0.40;0.40;;;;;;;;;;5077333;28;20406;-66
2022/01/05 01:07:03;;;;;;;0.97;0.40;;;;;;;;;;5077268;28;20413;-66
2022/01/05 01:09:29;;;;;;;0.50;0.50;;;;;;;;;;5077096;28;20496;-68
2022/01/05 01:11:55;;;;;;;0.30;0.30;;;;;;;;;;5077118;28;20502;-66
2022/01/05 01:14:21;;;;;;;0.30;0.30;;;;;;;;;;5077103;28;20424;-66
2022/01/05 01:16:47;;;;;;;0.50;0.50;;;;;;;;;;5076894;28;20480;-67
2022/01/05 01:19:13;;;;;;;0.30;0.30;;;;;;;;;;5075566;28;20474;-69
2022/01/05 01:21:39;;;;;;;0.30;0.30;;;;;;;;;;5076913;28;20409;-68
2022/01/05 01:24:05;;;;;;;0.77;0.40;;;;;;;;;;5076817;28;20417;-70
2022/01/05 01:26:33;;;;;;;0.50;0.50;;;;;;;;;;5075495;28;20422;-69
2022/01/05 01:28:59;;;;;;;0.40;0.40;;;;;;;;;;5076783;28;20484;-66
2022/01/05 01:31:26;;;;;;;0.40;0.40;;;;;;;;;;5076809;28;20394;-67
2022/01/05 01:33:52;;;;;;;0.40;0.40;;;;;;;;;;5076725;28;20428;-66
2022/01/05 01:36:18;;;;;;;0.50;0.37;;;;;;;;;;5075337;28;20786;-66
2022/01/05 01:38:44;;;;;;;0.40;0.40;;;;;;;;;;5076595;28;20924;-67
2022/01/05 01:41:11;;;;;;;1.03;0.50;;;;;;;;;;5076556;28;20398;-66
2022/01/05 01:43:37;;;;;;;0.60;0.60;;;;;;;;;;5076432;28;21073;-67
2022/01/05 01:46:04;;;;;;;1.40;0.50;;;;;;;;;;5076465;28;20404;-66
2022/01/05 01:48:31;;;;;;;2.20;0.50;;;;;;;;;;5076326;28;20422;-66
2022/01/05 01:50:57;;;;;;;0.30;0.30;;;;;;;;;;5076432;28;20394;-66
2022/01/05 01:53:23;;;;;;;0.50;0.50;;;;;;;;;;5076287;28;20906;-66
2022/01/05 01:55:49;;;;;;;0.40;0.40;;;;;;;;;;5076231;28;20398;-68
2022/01/05 01:58:16;;;;;;;0.40;0.40;;;;;;;;;;5076207;28;20477;-66
2022/01/05 02:00:42;;;;;;;0.40;0.40;;;;;;;;;;5076143;28;20468;-66
2022/01/05 02:03:08;;;;;;;0.40;0.40;;;;;;;;;;5076090;28;20422;-64
2022/01/05 02:05:34;;;;;;;0.80;0.47;;;;;;;;;;5076377;28;20410;-66
2022/01/05 02:08:04;;;;;;;0.40;0.40;;;;;;;;;;5075994;28;20437;-66
2022/01/05 02:10:30;;;;;;;0.40;0.40;;;;;;;;;;5076038;28;20402;-65
2022/01/05 02:12:56;;;;;;;2.00;0.30;;;;;;;;;;5075960;28;20402;-67
2022/01/05 02:15:22;;;;;;;0.40;0.40;;;;;;;;;;5074545;28;20491;-70
2022/01/05 02:20:39;;;;;;;0.30;0.30;;;;;;;;;;5054590;28;20418;-70
2022/01/05 02:23:05;;;;;;;0.30;0.30;;;;;;;;;;5075703;28;20401;-70
2022/01/05 02:25:31;;;;;;;0.40;0.40;;;;;;;;;;5074564;28;20422;-67
2022/01/05 02:27:57;;;;;;;0.50;0.50;;;;;;;;;;5075664;28;20443;-66
2022/01/05 02:30:24;;;;;;;0.30;0.30;;;;;;;;;;5075622;28;20780;-65
2022/01/05 02:32:51;;;;;;;0.50;0.50;;;;;;;;;;5075804;28;20779;-66
2022/01/05 02:35:17;;;;;;;0.40;0.40;;;;;;;;;;5075569;28;20410;-67
2022/01/05 02:37:47;;;;;;;0.40;0.40;;;;;;;;;;5075495;28;20405;-66
2022/01/05 02:40:14;;;;;;;0.40;0.40;;;;;;;;;;5075487;28;20827;-67
2022/01/05 02:42:41;;;;;;;0.30;0.30;;;;;;;;;;5075456;28;20414;-67
2022/01/05 02:45:07;;;;;;;0.40;0.40;;;;;;;;;;5075669;28;20418;-66
2022/01/05 02:47:33;;;;;;;0.40;0.40;;;;;;;;;;5075267;28;20804;-67
2022/01/05 02:50:00;;;;;;;0.47;0.47;;;;;;;;;;5075278;28;20421;-67
2022/01/05 02:52:26;;;;;;;0.40;0.40;;;;;;;;;;5075224;28;20406;-67
2022/01/05 02:54:51;;;;;;;0.40;0.40;;;;;;;;;;5075133;28;20406;-67
2022/01/05 02:57:17;;;;;;;2.13;0.40;;;;;;;;;;5075102;28;20412;-66
2022/01/05 02:59:43;;;;;;;0.43;0.43;;;;;;;;;;5074968;28;20509;-68
2022/01/05 03:02:09;;;;;;;0.30;0.30;;;;;;;;;;5075056;28;20955;-70
2022/01/05 03:04:36;;;;;;;0.70;0.60;;;;;;;;;;5075058;28;20467;-69
2022/01/05 03:07:02;;;;;;;0.50;0.50;;;;;;;;;;5075129;28;20430;-71
2022/01/05 03:09:28;;;;;;;0.40;0.40;;;;;;;;;;5074947;28;20388;-70
2022/01/05 03:11:54;;;;;;;0.40;0.40;;;;;;;;;;5074860;28;20767;-69
2022/01/05 03:14:21;;;;;;;0.57;0.40;;;;;;;;;;5074869;28;20415;-70
2022/01/05 03:16:47;;;;;;;0.67;0.40;;;;;;;;;;5074596;28;20462;-67
2022/01/05 03:19:13;;;;;;;0.93;0.40;;;;;;;;;;5074398;28;20518;-66
2022/01/05 03:21:39;;;;;;;0.50;0.50;;;;;;;;;;5074620;28;20410;-67
2022/01/05 03:24:05;;;;;;;1.03;0.47;;;;;;;;;;5074611;28;20415;-65
2022/01/05 03:26:31;;;;;;;0.30;0.30;;;;;;;;;;5074172;28;20951;-67
2022/01/05 03:28:57;;;;;;;0.30;0.30;;;;;;;;;;5073197;28;20433;-67
2022/01/05 03:31:23;;;;;;;5.50;0.67;;;;;;;;;;5074539;28;20892;-66
2022/01/05 03:33:49;;;;;;;0.83;0.40;;;;;;;;;;5074450;28;20403;-66
2022/01/05 03:36:15;;;;;;;0.83;0.40;;;;;;;;;;5074426;28;20466;-66
2022/01/05 03:38:41;;;;;;;1.17;0.40;;;;;;;;;;5074244;28;20465;-66
2022/01/05 03:41:07;;;;;;;0.40;0.40;;;;;;;;;;5074318;28;20456;-66
2022/01/05 03:43:33;;;;;;;0.40;0.40;;;;;;;;;;5074458;28;20450;-69
2022/01/05 03:45:59;;;;;;;0.40;0.40;;;;;;;;;;5074205;28;20501;-69
2022/01/05 03:48:25;;;;;;;0.40;0.40;;;;;;;;;;5074103;28;20501;-69
2022/01/05 03:50:52;;;;;;;0.37;0.37;;;;;;;;;;5074145;28;21022;-71
2022/01/05 03:53:18;;;;;;;0.50;0.50;;;;;;;;;;5074037;28;20468;-70
2022/01/05 03:55:45;;;;;;;0.60;0.60;;;;;;;;;;5073175;28;20920;-71
2022/01/05 03:58:11;;;;;;;0.47;0.40;;;;;;;;;;5073797;28;20982;-70
2022/01/05 04:00:40;;;;;;;0.40;0.40;;;;;;;;;;5073908;28;20414;-70
2022/01/05 04:03:06;;;;;;;0.50;0.50;;;;;;;;;;5073746;28;20432;-71
2022/01/05 04:05:32;;;;;;;0.37;0.37;;;;;;;;;;5073904;28;20885;-66
2022/01/05 04:07:58;;;;;;;0.40;0.40;;;;;;;;;;5074029;28;20437;-68
2022/01/05 04:10:24;;;;;;;0.37;0.37;;;;;;;;;;5073716;28;20464;-68
2022/01/05 04:12:50;;;;;;;1.37;0.70;;;;;;;;;;5073912;28;20748;-66
2022/01/05 04:15:16;;;;;;;0.30;0.30;;;;;;;;;;5073769;28;20410;-69
2022/01/05 04:17:42;;;;;;;0.40;0.40;;;;;;;;;;5073565;28;20454;-66
2022/01/05 04:20:09;;;;;;;0.30;0.30;;;;;;;;;;5073481;28;20461;-67
2022/01/05 04:22:35;;;;;;;0.40;0.40;;;;;;;;;;5073558;28;20913;-68
2022/01/05 04:25:01;;;;;;;0.83;0.50;;;;;;;;;;5073506;28;20417;-67
2022/01/05 04:27:27;;;;;;;1.67;0.60;;;;;;;;;;5073447;28;20406;-69
2022/01/05 04:29:53;;;;;;;0.30;0.30;;;;;;;;;;5073459;28;20494;-69
2022/01/05 04:32:19;;;;;;;0.83;0.70;;;;;;;;;;5073694;28;20438;-69
2022/01/05 04:34:45;;;;;;;0.70;0.50;;;;;;;;;;5073475;28;20434;-69
2022/01/05 04:37:11;;;;;;;0.60;0.60;;;;;;;;;;5072764;28;20402;-70
2022/01/05 04:39:37;;;;;;;0.70;0.70;;;;;;;;;;5072064;28;20469;-68
2022/01/05 04:42:04;;;;;;;0.70;0.60;;;;;;;;;;5072017;28;20415;-68
2022/01/05 04:44:30;;;;;;;0.40;0.40;;;;;;;;;;5073311;28;20425;-68
2022/01/05 04:46:56;;;;;;;0.70;0.70;;;;;;;;;;5073309;28;20873;-68
2022/01/05 04:49:22;;;;;;;0.53;0.53;;;;;;;;;;5073245;28;20397;-69
2022/01/05 04:51:48;;;;;;;0.50;0.50;;;;;;;;;;5073202;28;20410;-69
2022/01/05 04:54:15;;;;;;;0.40;0.40;;;;;;;;;;5073480;28;20414;-66
2022/01/05 04:56:41;;;;;;;0.50;0.50;;;;;;;;;;5073212;28;20413;-68
2022/01/05 04:59:07;;;;;;;1.27;0.87;;;;;;;;;;5073167;28;20813;-67
2022/01/05 05:01:33;;;;;;;0.80;0.80;;;;;;;;;;5073161;28;20489;-66
2022/01/05 05:03:58;;;;;;;0.80;0.80;;;;;;;;;;5073152;28;20416;-66
2022/01/05 05:06:25;;;;;;;0.83;0.83;;;;;;;;;;5071871;28;20372;-67
2022/01/05 05:08:51;;;;;;;0.77;0.77;;;;;;;;;;5073004;28;20846;-68
2022/01/05 05:11:17;;;;;;;1.00;1.00;;;;;;;;;;5071860;28;20888;-69
2022/01/05 05:13:43;;;;;;;0.80;0.80;;;;;;;;;;5071822;28;20418;-70
2022/01/05 05:16:09;;;;;;;0.70;0.70;;;;;;;;;;5072934;28;20865;-69
2022/01/05 05:18:35;;;;;;;0.80;0.80;;;;;;;;;;5072910;28;20611;-70
2022/01/05 05:21:01;;;;;;;0.90;0.90;;;;;;;;;;5073219;28;20746;-70
2022/01/05 05:23:27;;;;;;;1.00;1.00;;;;;;;;;;5072979;28;20753;-71
2022/01/05 05:25:53;;;;;;;1.20;1.20;;;;;;;;;;5071641;28;20513;-70
2022/01/05 05:28:19;;;;;;;0.97;0.97;;;;;;;;;;5071628;28;20517;-69
2022/01/05 05:30:45;;;;;;;0.97;0.97;;;;;;;;;;5071640;28;20440;-69
2022/01/05 05:33:11;;;;;;;1.00;1.00;;;;;;;;;;5072809;28;20418;-70
2022/01/05 05:35:39;;;;;;;0.60;0.60;;;;;;;;;;5072848;28;20471;-70
2022/01/05 05:38:05;;;;;;;0.83;0.83;;;;;;;;;;5072780;28;20955;-69
2022/01/05 05:40:31;;;;;;;0.70;0.70;;;;;;;;;;5072819;28;20885;-69
2022/01/05 05:42:57;;;;;;;0.50;0.50;;;;;;;;;;5072851;28;20410;-66
2022/01/05 05:45:23;;;;;;;0.80;0.80;;;;;;;;;;5072811;28;20452;-66
2022/01/05 05:47:49;;;;;;;0.70;0.70;;;;;;;;;;5072637;28;20393;-67
2022/01/05 05:50:16;;;;;;;0.50;0.50;;;;;;;;;;5076351;28;20485;-69
2022/01/05 05:52:42;;;;;;;0.40;0.40;;;;;;;;;;5076452;28;20438;-69
2022/01/05 05:55:08;;;;;;;0.50;0.50;;;;;;;;;;5076243;28;20769;-69
2022/01/05 05:57:34;;;;;;;0.60;0.60;;;;;;;;;;5076202;28;20407;-70
2022/01/05 06:00:00;;;;;;;0.40;0.40;;;;;;;;;;5076194;28;20473;-70
2022/01/05 06:02:26;;;;;;;0.40;0.40;;;;;;;;;;5076209;28;20403;-70
2022/01/05 06:04:52;;;;;;;0.40;0.40;;;;;;;;;;5076085;28;20748;-70
2022/01/05 06:07:18;;;;;;;0.30;0.30;;;;;;;;;;5076048;28;20414;-70
2022/01/05 06:09:44;;;;;;;0.40;0.40;;;;;;;;;;5074718;28;20430;-69
2022/01/05 06:12:10;;;;;;;0.40;0.40;;;;;;;;;;5074728;28;20811;-70
2022/01/05 06:14:36;;;;;;;0.40;0.40;;;;;;;;;;5075984;28;20432;-70
2022/01/05 06:17:02;;;;;;;0.50;0.50;;;;;;;;;;5075724;28;20476;-69
2022/01/05 06:19:28;;;;;;;0.40;0.40;;;;;;;;;;5075715;28;20478;-70
2022/01/05 06:21:54;;;;;;;0.40;0.40;;;;;;;;;;5075785;28;20377;-70
2022/01/05 06:24:20;;;;;;;0.40;0.40;;;;;;;;;;5075753;28;20419;-70
2022/01/05 06:26:46;;;;;;;0.37;0.37;;;;;;;;;;5075818;28;20895;-71
2022/01/05 06:29:13;;;;;;;0.40;0.40;;;;;;;;;;5075590;28;20387;-70
2022/01/05 06:31:40;;;;;;;0.50;0.40;;;;;;;;;;5075636;28;20393;-68
2022/01/05 06:34:05;;;;;;;0.40;0.40;;;;;;;;;;5075539;28;20397;-67
2022/01/05 06:36:31;;;;;;;0.40;0.40;;;;;;;;;;5074217;28;20407;-66
2022/01/05 06:38:57;;;;;;;0.50;0.50;;;;;;;;;;5075439;28;20451;-69
2022/01/05 06:41:23;;;;;;;0.50;0.50;;;;;;;;;;5075417;28;20394;-69
2022/01/05 06:43:49;;;;;;;1.47;0.70;;;;;;;;;;5075424;28;21024;-69
2022/01/05 06:46:15;;;;;;;0.50;0.50;;;;;;;;;;5075268;28;20403;-68
2022/01/05 06:48:41;;;;;;;0.60;0.50;;;;;;;;;;5075236;28;20474;-70
2022/01/05 06:51:07;;;;;;;0.60;0.60;;;;;;;;;;5075322;28;20878;-67
2022/01/05 06:53:33;;;;;;;0.60;0.60;;;;;;;;;;5075155;28;20410;-69
2022/01/05 06:55:59;;;;;;;0.60;0.60;;;;;;;;;;5057553;28;20464;-68
2022/01/05 06:58:25;;;;;;;0.50;0.50;;;;;;;;;;5075007;28;20458;-70
2022/01/05 07:00:51;;;;;;;0.50;0.50;;;;;;;;;;5074489;28;20400;-69
2022/01/05 07:03:17;;;;;;;1.00;1.00;;;;;;;;;;5075002;28;20389;-67
2022/01/05 07:05:43;;;;;;;0.77;0.60;;;;;;;;;;5075007;28;20401;-69
2022/01/05 07:08:09;;;;;;;3.87;0.73;;;;;;;;;;5073704;28;20400;-69
2022/01/05 07:10:35;;;;;;;0.70;0.70;;;;;;;;;;5074895;28;20426;-69
2022/01/05 07:13:01;;;;;;;0.90;0.90;;;;;;;;;;5074836;28;20488;-69
2022/01/05 07:15:28;;;;;;;1.93;1.20;;;;;;;;;;5074642;28;20465;-69
2022/01/05 07:17:54;;;;;;;1.57;0.87;;;;;;;;;;5074626;28;20415;-66
2022/01/05 07:20:20;;;;;;;5.13;1.07;;;;;;;;;;5074619;28;20406;-68
2022/01/05 07:22:46;;;;;;;1.83;0.90;;;;;;;;;;5074605;28;20786;-70
2022/01/05 07:25:12;;;;;;;1.07;1.00;;;;;;;;;;5074546;28;20381;-69
2022/01/05 07:27:38;;;;;;;1.90;1.03;;;;;;;;;;5074511;28;20738;-69
2022/01/05 07:30:05;;;;;;;1.13;1.10;;;;;;;;;;5074456;28;20406;-70
2022/01/05 07:32:31;;;;;;;1.43;1.33;;;;;;;;;;5074381;28;20402;-70
2022/01/05 07:34:57;;;;;;;1.23;1.13;;;;;;;;;;5074469;28;20410;-70
2022/01/05 07:37:23;;;;;;;5.95;1.55;;;;;;;;;;5074332;28;20406;-69
2022/01/05 07:39:49;;;;;;;1.50;1.40;;;;;;;;;;5074343;28;20235;-69
2022/01/05 07:42:15;;;;;;;1.30;1.20;;;;;;;;;;5074988;28;20164;-66
2022/01/05 07:44:41;;;;;;;0.90;0.90;;;;;;;;;;5074601;28;20430;-66
2022/01/05 07:47:08;;;;;;;1.67;1.57;;;;;;;;;;5074360;28;20369;-66
2022/01/05 07:49:34;;;;;;;2.27;1.83;;;;;;;;;;5074257;28;20756;-66
2022/01/05 07:52:00;;;;;;;2.23;2.13;;;;;;;;;;5074225;28;20477;-65
2022/01/05 07:54:26;;;;;;;2.20;1.80;;;;;;;;;;5072839;28;20440;-66
2022/01/05 07:56:52;;;;;;;1.73;1.63;;;;;;;;;;5073965;28;20385;-64
2022/01/05 07:59:18;;;;;;;2.93;1.70;;;;;;;;;;5073846;28;20207;-64
2022/01/05 08:01:44;;;;;;;1.50;1.50;;;;;;;;;;5073901;28;20909;-63
2022/01/05 08:04:10;;;;;;;2.87;1.50;;;;;;;;;;5073788;28;20853;-64
2022/01/05 08:06:36;;;;;;;2.30;1.70;;;;;;;;;;5073734;28;20410;-65
2022/01/05 08:09:02;;;;;;;1.80;1.20;;;;;;;;;;5073708;28;20418;-66
2022/01/05 08:11:28;;;;;;;1.33;1.33;;;;;;;;;;5071818;28;20786;-66
2022/01/05 08:13:54;;;;;;;1.23;1.13;;;;;;;;;;5073246;28;20438;-65
2022/01/05 08:16:20;;;;;;;1.40;1.30;;;;;;;;;;5073587;28;20832;-63
2022/01/05 08:18:47;;;;;;;2.13;1.60;;;;;;;;;;5072090;28;20547;-63
2022/01/05 08:21:13;;;;;;;4.20;1.40;;;;;;;;;;5073507;28;20410;-64
2022/01/05 08:23:39;;;;;;;1.40;1.30;;;;;;;;;;5073508;28;20434;-64
2022/01/05 08:26:05;;;;;;;1.17;1.17;;;;;;;;;;5073472;28;20410;-64
2022/01/05 08:28:32;;;;;;;2.00;1.80;;;;;;;;;;5073487;28;20627;-64
2022/01/05 08:30:58;;;;;;;1.70;1.70;;;;;;;;;;5073467;28;20409;-63
2022/01/05 08:33:24;;;;;;;3.00;2.63;;;;;;;;;;5073333;28;20401;-64
2022/01/05 08:35:50;;;;;;;3.53;2.33;;;;;;;;;;5073335;28;20373;-65
2022/01/05 08:38:17;;;;;;;2.60;2.40;;;;;;;;;;5073344;28;20418;-64
2022/01/05 08:40:43;;;;;;;3.60;2.40;;;;;;;;;;5072029;28;20846;-64
2022/01/05 08:43:10;;;;;;;2.43;1.43;;;;;;;;;;5073358;28;20463;-65
2022/01/05 08:45:36;;;;;;;2.27;2.20;;;;;;;;;;5073321;28;20422;-67
2022/01/05 08:48:03;;;;;;;5.30;1.70;;;;;;;;;;5073259;28;20385;-68
2022/01/05 08:50:30;;;;;;;3.37;2.13;;;;;;;;;;5073196;28;20564;-65
2022/01/05 08:52:57;;;;;;;6.03;5.50;;;;;;;;;;5073194;28;20493;-65
2022/01/05 08:55:24;;;;;;;4.90;2.77;;;;;;;;;;5073194;28;20410;-65
2022/01/05 08:57:50;;;;;;;2.50;1.50;;;;;;;;;;5073155;28;20373;-65
2022/01/05 09:00:17;;;;;;;2.17;2.00;;;;;;;;;;5073143;28;20465;-65
2022/01/05 09:02:43;;;;;;;4.43;2.10;;;;;;;;;;5072963;28;20463;-67
2022/01/05 09:05:09;;;;;;;2.17;2.03;;;;;;;;;;5073130;28;20475;-65
2022/01/05 09:07:36;;;;;;;4.37;1.60;;;;;;;;;;5073085;28;20168;-67
2022/01/05 09:10:04;;;;;;;4.30;2.63;;;;;;;;;;5073141;28;20409;-64
2022/01/05 09:12:30;;;;;;;2.22;2.13;;;;;;;;;;5073290;28;20402;-66
2022/01/05 09:14:56;;;;;;;1.55;1.35;;;;;;;;;;5073043;28;20229;-65
2022/01/05 09:17:22;;;;;;;2.00;1.90;;;;;;;;;;5071547;28;20238;-65
2022/01/05 09:19:48;;;;;;;5.93;2.93;;;;;;;;;;5072800;28;20844;-66
2022/01/05 09:22:14;;;;;;;4.83;3.20;;;;;;;;;;5073385;28;20398;-65
2022/01/05 09:24:40;;;;;;;6.57;2.20;;;;;;;;;;5076176;28;20398;-65
2022/01/05 09:27:07;;;;;;;6.53;2.40;;;;;;;;;;5075811;28;20406;-64
2022/01/05 09:29:33;;;;;;;4.30;2.50;;;;;;;;;;5076706;28;20798;-66
2022/01/05 09:32:06;;;;;;;4.73;3.33;;;;;;;;;;5076610;28;20401;-64
2022/01/05 09:34:32;;;;;;;3.00;2.10;;;;;;;;;;5076752;28;20425;-64
2022/01/05 09:37:04;;;;;;;6.30;1.80;;;;;;;;;;5076527;28;20406;-64
2022/01/05 09:42:15;;;;;;;3.93;2.13;;;;;;;;;;5076676;28;20409;-65
2022/01/05 09:44:42;;;;;;;1.80;1.70;;;;;;;;;;5076406;28;20976;-65
2022/01/05 09:47:15;;;;;;;2.50;2.10;;;;;;;;;;5076479;28;20451;-64
2022/01/05 09:50:03;;;;;;;5.20;2.27;;;;;;;;;;5076366;28;20432;-65
2022/01/05 09:52:30;;;;;;;1.70;1.60;;;;;;;;;;5076552;28;20430;-65
2022/01/05 09:54:57;;;;;;;2.50;2.00;;;;;;;;;;5076128;28;20417;-65
2022/01/05 09:57:23;;;;;;;5.23;2.07;;;;;;;;;;5076217;28;20407;-65
2022/01/05 09:59:51;;;;;;;3.03;1.60;;;;;;;;;;5076026;28;20514;-65
2022/01/05 10:02:18;;;;;;;3.43;2.13;;;;;;;;;;5076121;28;20414;-65
2022/01/05 10:04:44;;;;;;;3.47;1.80;;;;;;;;;;5076252;28;20428;-66
2022/01/05 10:07:10;;;;;;;3.17;2.30;;;;;;;;;;5075973;28;20817;-65
2022/01/05 10:09:37;;;;;;;3.27;1.90;;;;;;;;;;5075970;28;20976;-65
2022/01/05 10:12:03;;;;;;;9.70;2.13;;;;;;;;;;5076017;28;20452;-65
2022/01/05 10:14:30;;;;;;;2.80;2.00;;;;;;;;;;5076162;28;20410;-65
2022/01/05 10:17:08;;;;;;;2.23;1.67;;;;;;;;;;5075527;28;20454;-66
2022/01/05 10:19:35;;;;;;;3.00;1.73;;;;;;;;;;5075681;28;20975;-65
2022/01/05 10:22:01;;;;;;;1.70;1.47;;;;;;;;;;5075809;28;20410;-66
2022/01/05 10:24:40;;;;;;;2.20;1.33;;;;;;;;;;5075815;28;20928;-66
2022/01/05 10:27:06;;;;;;;2.77;2.03;;;;;;;;;;5076002;28;20425;-66
2022/01/05 10:29:33;;;;;;;4.27;2.13;;;;;;;;;;5075663;28;20418;-66
2022/01/05 10:32:01;;;;;;;3.10;1.97;;;;;;;;;;5075581;28;20439;-65
2022/01/05 10:34:29;;;;;;;2.60;2.40;;;;;;;;;;5074901;28;20916;-72
2022/01/05 10:36:59;;;;;;;1.27;1.20;;;;;;;;;;5075083;28;20896;-66
2022/01/05 10:39:30;;;;;;;4.07;2.00;;;;;;;;;;5075411;28;20462;-66
2022/01/05 10:41:56;;;;;;;4.10;1.70;;;;;;;;;;5074302;28;20827;-66
2022/01/05 10:44:22;;;;;;;1.90;1.80;;;;;;;;;;5075423;28;20596;-68
2022/01/05 10:46:53;;;;;;;4.33;2.30;;;;;;;;;;5075382;28;20437;-66
2022/01/05 10:49:27;;;;;;;2.00;1.83;;;;;;;;;;5073927;28;20493;-66
2022/01/05 10:51:54;;;;;;;1.57;1.47;;;;;;;;;;5075193;28;20796;-72
2022/01/05 10:54:21;;;;;;;5.27;2.40;;;;;;;;;;5075170;28;20436;-67
2022/01/05 10:56:47;;;;;;;3.17;2.00;;;;;;;;;;5075226;28;20402;-65
2022/01/05 10:59:16;;;;;;;2.10;1.43;;;;;;;;;;5073743;28;20981;-65
2022/01/05 11:01:43;;;;;;;3.53;2.20;;;;;;;;;;5075309;28;20474;-66
2022/01/05 11:04:16;;;;;;;2.03;1.63;;;;;;;;;;5074902;28;21001;-65
2022/01/05 11:06:54;;;;;;;2.93;1.60;;;;;;;;;;5074837;28;20403;-65
2022/01/05 11:09:21;;;;;;;2.50;1.63;;;;;;;;;;5075087;28;20441;-66
2022/01/05 11:11:49;;;;;;;5.47;1.77;;;;;;;;;;5074813;28;20877;-65
2022/01/05 11:14:16;;;;;;;1.63;1.53;;;;;;;;;;5074825;28;20418;-65
2022/01/05 11:16:43;;;;;;;1.70;1.60;;;;;;;;;;5074626;28;20465;-65
2022/01/05 11:19:12;;;;;;;3.60;1.63;;;;;;;;;;5074572;28;20477;-66
2022/01/05 11:21:39;;;;;;;4.57;1.87;;;;;;;;;;5074640;28;20403;-65
2022/01/05 11:24:06;;;;;;;2.60;1.43;;;;;;;;;;5074582;28;20415;-65
2022/01/05 11:26:35;;;;;;;3.33;1.43;;;;;;;;;;5074582;28;20403;-66
2022/01/05 11:29:03;;;;;;;2.30;1.80;;;;;;;;;;5074467;28;20398;-65
2022/01/05 11:31:29;;;;;;;2.63;1.70;;;;;;;;;;5074444;28;20447;-66
2022/01/05 11:33:55;;;;;;;4.70;1.87;;;;;;;;;;5074322;28;20414;-66
2022/01/05 11:36:22;;;;;;;2.53;1.40;;;;;;;;;;5074382;28;20729;-65
2022/01/05 11:38:47;;;;;;;2.97;1.60;;;;;;;;;;5074219;28;20888;-65
2022/01/05 11:41:15;;;;;;;2.83;1.83;;;;;;;;;;5074244;28;20489;-65
2022/01/05 11:43:41;;;;;;;6.53;2.00;;;;;;;;;;5074224;28;20399;-65
2022/01/05 11:46:14;;;;;;;5.17;1.30;;;;;;;;;;5073964;28;20410;-65
2022/01/05 11:48:40;;;;;;;2.10;1.43;;;;;;;;;;5073912;28;20410;-65
2022/01/05 11:51:07;;;;;;;2.03;1.83;;;;;;;;;;5072722;28;20433;-65
2022/01/05 11:53:40;;;;;;;3.00;1.90;;;;;;;;;;5072634;28;20761;-65
2022/01/05 11:56:07;;;;;;;4.87;2.00;;;;;;;;;;5074045;28;20888;-66
2022/01/05 11:58:34;;;;;;;3.10;1.80;;;;;;;;;;5073747;28;20946;-66
2022/01/05 12:01:12;;;;;;;4.50;1.97;;;;;;;;;;5073819;28;20407;-66
2022/01/05 12:03:52;;;;;;;4.87;2.80;;;;;;;;;;5073772;28;20743;-65
2022/01/05 12:06:19;;;;;;;6.83;2.40;;;;;;;;;;5073793;28;20832;-65
2022/01/05 12:08:46;;;;;;;7.90;2.33;;;;;;;;;;5073892;28;20464;-66
2022/01/05 12:11:28;;;;;;;7.03;2.20;;;;;;;;;;5072468;28;20842;-66
2022/01/05 12:13:54;;;;;;;3.97;1.70;;;;;;;;;;5073740;28;20512;-66
2022/01/05 12:16:20;;;;;;;1.70;1.70;;;;;;;;;;5073450;28;21011;-66
2022/01/05 12:19:02;;;;;;;8.57;1.80;;;;;;;;;;5073605;28;20465;-66
2022/01/05 12:21:48;;;;;;;3.53;1.43;;;;;;;;;;5073898;28;20418;-65
2022/01/05 12:24:15;;;;;;;2.40;1.40;;;;;;;;;;5073498;28;20418;-66
2022/01/05 12:26:41;;;;;;;4.20;1.90;;;;;;;;;;5073533;28;20409;-66
2022/01/05 12:29:07;;;;;;;2.77;2.10;;;;;;;;;;5073517;28;20485;-65
2022/01/05 12:31:48;;;;;;;2.73;1.60;;;;;;;;;;5072171;28;20505;-66
2022/01/05 12:34:15;;;;;;;2.03;1.87;;;;;;;;;;5073382;28;20497;-66
2022/01/05 12:36:42;;;;;;;1.83;1.70;;;;;;;;;;5073491;28;20398;-66
2022/01/05 12:39:11;;;;;;;4.23;2.40;;;;;;;;;;5073371;28;20450;-65
2022/01/05 12:41:38;;;;;;;2.00;1.90;;;;;;;;;;5073353;28;20413;-65
2022/01/05 12:44:06;;;;;;;6.47;1.97;;;;;;;;;;5073565;28;20398;-65
2022/01/05 12:46:34;;;;;;;4.13;1.70;;;;;;;;;;5073392;28;20488;-65
2022/01/05 12:49:01;;;;;;;4.10;1.40;;;;;;;;;;5073242;28;20452;-66
2022/01/05 12:51:34;;;;;;;3.67;1.87;;;;;;;;;;5073533;28;20733;-65
2022/01/05 12:54:02;;;;;;;6.10;2.30;;;;;;;;;;5072198;28;20889;-67
2022/01/05 12:56:30;;;;;;;3.53;1.77;;;;;;;;;;5072443;28;20493;-67
2022/01/05 12:58:57;;;;;;;4.60;1.83;;;;;;;;;;5075047;28;20908;-67
2022/01/05 13:01:24;;;;;;;3.57;1.97;;;;;;;;;;5077245;28;20399;-67
2022/01/05 13:03:50;;;;;;;3.77;1.63;;;;;;;;;;5077145;28;20467;-70
2022/01/05 13:06:17;;;;;;;3.13;1.53;;;;;;;;;;5076905;28;20476;-68
2022/01/05 13:08:50;;;;;;;6.00;1.83;;;;;;;;;;5076522;28;20416;-67
2022/01/05 13:11:32;;;;;;;7.50;2.10;;;;;;;;;;5077225;28;20494;-70
2022/01/05 13:14:18;;;;;;;5.20;1.50;;;;;;;;;;5077024;28;20394;-70
2022/01/05 13:16:55;;;;;;;7.87;1.90;;;;;;;;;;5076407;28;20453;-68
2022/01/05 13:19:22;;;;;;;1.50;1.40;;;;;;;;;;5076671;28;20469;-67
2022/01/05 13:21:49;;;;;;;6.90;1.80;;;;;;;;;;5076917;28;20394;-68
2022/01/05 13:24:15;;;;;;;3.13;2.00;;;;;;;;;;5076908;28;20414;-66
2022/01/05 13:27:00;;;;;;;5.20;1.77;;;;;;;;;;5075503;28;20471;-67
2022/01/05 13:29:28;;;;;;;1.63;1.53;;;;;;;;;;5076569;28;20870;-66
2022/01/05 13:32:08;;;;;;;3.27;1.70;;;;;;;;;;5076506;28;20464;-69
2022/01/05 13:34:39;;;;;;;2.73;1.67;;;;;;;;;;5076611;28;20827;-67
2022/01/05 13:37:05;;;;;;;2.93;1.60;;;;;;;;;;5076524;28;20406;-63
2022/01/05 13:39:34;;;;;;;3.37;1.70;;;;;;;;;;5076329;28;20832;-67
2022/01/05 13:42:00;;;;;;;3.63;1.30;;;;;;;;;;5076374;28;20744;-66
2022/01/05 13:44:26;;;;;;;8.17;1.67;;;;;;;;;;5076255;28;20402;-66
2022/01/05 13:46:52;;;;;;;4.00;1.60;;;;;;;;;;5076459;28;20399;-67
2022/01/05 13:49:18;;;;;;;3.37;1.63;;;;;;;;;;5076374;28;20885;-65
2022/01/05 13:52:00;;;;;;;1.93;1.27;;;;;;;;;;5076050;28;20397;-66
2022/01/05 13:54:26;;;;;;;2.87;1.63;;;;;;;;;;5076377;28;20504;-69
2022/01/05 13:56:52;;;;;;;4.00;1.63;;;;;;;;;;5076188;28;20884;-67
2022/01/05 13:59:18;;;;;;;5.73;1.80;;;;;;;;;;5076044;28;20826;-69
2022/01/05 14:01:59;;;;;;;3.77;1.53;;;;;;;;;;5075909;28;20448;-66
2022/01/05 14:04:25;;;;;;;8.50;1.70;;;;;;;;;;5075911;28;20431;-66
2022/01/05 14:06:58;;;;;;;5.60;2.10;;;;;;;;;;5075797;28;20434;-65
2022/01/05 14:09:30;;;;;;;5.00;1.87;;;;;;;;;;5075820;28;20459;-67
2022/01/05 14:12:00;;;;;;;3.87;1.40;;;;;;;;;;5075954;28;20485;-70
2022/01/05 14:14:26;;;;;;;1.80;1.20;;;;;;;;;;5074510;28;20410;-70
2022/01/05 14:16:53;;;;;;;3.17;1.57;;;;;;;;;;5075701;28;20615;-68
2022/01/05 14:19:27;;;;;;;5.40;1.50;;;;;;;;;;5075829;28;20472;-68
2022/01/05 14:22:01;;;;;;;3.80;1.70;;;;;;;;;;5076038;28;20385;-72
2022/01/05 14:24:29;;;;;;;3.30;1.20;;;;;;;;;;5075797;28;20421;-70
2022/01/05 14:26:55;;;;;;;4.60;2.40;;;;;;;;;;5075923;28;20805;-66
2022/01/05 14:29:24;;;;;;;2.60;1.10;;;;;;;;;;5074322;28;20413;-69
2022/01/05 14:31:50;;;;;;;3.13;1.77;;;;;;;;;;5075638;28;20399;-69
2022/01/05 14:34:22;;;;;;;8.00;2.00;;;;;;;;;;5075617;28;20427;-70
2022/01/05 14:36:51;;;;;;;3.07;1.63;;;;;;;;;;5075578;28;20405;-72
2022/01/05 14:39:20;;;;;;;2.90;2.07;;;;;;;;;;5075694;28;20432;-73
2022/01/05 14:41:48;;;;;;;4.50;2.27;;;;;;;;;;5075507;28;20410;-70
2022/01/05 14:44:23;;;;;;;4.67;2.27;;;;;;;;;;5075440;28;20398;-69
2022/01/05 14:46:50;;;;;;;3.60;1.63;;;;;;;;;;5075400;28;20874;-68
2022/01/05 14:49:17;;;;;;;3.70;1.73;;;;;;;;;;5075494;28;20838;-70